createdAt,value
2024-01-04T00:04:55.065Z,70.04
2024-01-04T00:09:58.669Z,69.89
2024-01-04T00:15:04.970Z,69.74
2024-01-04T00:20:11.073Z,70.62
2024-01-04T00:25:14.726Z,69.61
2024-01-04T00:30:20.217Z,69.60
2024-01-04T00:35:23.954Z,70.66
2024-01-04T00:40:27.563Z,70.55
2024-01-04T00:45:32.685Z,70.09
2024-01-04T00:50:36.326Z,70.60
2024-01-04T00:55:41.326Z,69.55
2024-01-04T01:00:46.393Z,69.75
2024-01-04T01:05:50.074Z,70.03
2024-01-04T01:10:53.719Z,69.32
2024-01-04T01:15:58.882Z,70.04
2024-01-04T01:21:03.700Z,70.34
2024-01-04T01:26:07.338Z,70.40
2024-01-04T01:31:12.381Z,69.58
2024-01-04T01:36:16.021Z,69.28
2024-01-04T01:41:19.657Z,70.15
2024-01-04T01:46:24.852Z,70.02
2024-01-04T01:51:28.752Z,70.63
2024-01-04T01:56:33.135Z,69.38
2024-01-04T02:01:38.185Z,69.25
2024-01-04T02:06:41.816Z,69.54
2024-01-04T02:11:46.653Z,69.61
2024-01-04T02:16:51.673Z,69.96
2024-01-04T02:21:55.275Z,69.62
2024-01-04T02:27:00.311Z,69.58
2024-01-04T02:32:03.911Z,69.07
2024-01-04T02:37:07.566Z,69.39
2024-01-04T02:42:12.641Z,70.05
2024-01-04T02:47:16.286Z,70.11
2024-01-04T02:52:19.881Z,69.24
2024-01-04T02:57:24.963Z,69.57
2024-01-04T03:02:28.596Z,69.27
2024-01-04T03:07:33.278Z,69.34
2024-01-04T03:12:39.212Z,69.28
2024-01-04T03:17:42.844Z,69.78
2024-01-04T03:22:46.477Z,69.20
2024-01-04T03:27:51.476Z,69.89
2024-01-04T03:32:55.394Z,70.14
2024-01-04T03:37:59.326Z,69.59
2024-01-04T03:43:05.366Z,69.30
2024-01-04T03:48:09.694Z,69.05
2024-01-04T03:53:13.356Z,68.96
2024-01-04T03:58:18.348Z,69.87
2024-01-04T04:03:22.041Z,68.72
2024-01-04T04:08:25.800Z,69.33
2024-01-04T04:13:31.946Z,69.16
2024-01-04T04:18:35.629Z,68.97
2024-01-04T04:23:39.504Z,69.81
2024-01-04T04:28:44.519Z,69.44
2024-01-04T04:33:48.956Z,69.50
2024-01-04T04:38:52.668Z,69.52
2024-01-04T04:43:57.704Z,68.86
2024-01-04T04:49:01.534Z,69.03
2024-01-04T04:54:05.454Z,68.86
2024-01-04T04:59:10.904Z,69.67
2024-01-04T05:04:14.819Z,68.90
2024-01-04T05:09:19.309Z,68.88
2024-01-04T05:14:24.456Z,69.84
2024-01-04T05:19:28.196Z,69.66
2024-01-04T05:24:31.863Z,69.10
2024-01-04T05:29:37.079Z,68.89
2024-01-04T05:34:40.873Z,69.55
2024-01-04T05:39:44.808Z,68.62
2024-01-04T05:44:49.917Z,68.82
2024-01-04T05:49:53.602Z,69.51
2024-01-04T05:54:57.336Z,69.21
2024-01-04T06:00:02.465Z,69.34
2024-01-04T06:05:07.032Z,69.29
2024-01-04T06:10:10.979Z,68.73
2024-01-04T06:15:16.386Z,68.70
2024-01-04T06:20:20.014Z,68.91
2024-01-04T06:25:23.584Z,68.57
2024-01-04T06:30:29.056Z,68.96
2024-01-04T06:35:32.828Z,68.80
2024-01-04T06:40:36.910Z,69.67
2024-01-04T06:45:41.987Z,69.42
2024-01-04T06:50:46.145Z,69.53
2024-01-04T06:55:49.745Z,68.66
2024-01-04T07:00:54.781Z,68.61
2024-01-04T07:05:58.461Z,68.79
2024-01-04T07:11:06.325Z,68.94
2024-01-04T07:16:11.643Z,68.50
2024-01-04T07:21:15.732Z,68.61
2024-01-04T07:26:19.367Z,69.12
2024-01-04T07:31:24.400Z,68.60
2024-01-04T07:36:28.146Z,68.45
2024-01-04T07:41:31.884Z,69.27
2024-01-04T07:46:36.895Z,69.43
2024-01-04T07:51:40.663Z,68.62
2024-01-04T07:56:44.386Z,68.87
2024-01-04T08:01:49.719Z,68.87
2024-01-04T08:06:53.372Z,68.56
2024-01-04T08:11:57.045Z,69.34
2024-01-04T08:17:02.061Z,69.34
2024-01-04T08:22:05.981Z,69.13
2024-01-04T08:27:09.617Z,69.40
2024-01-04T08:32:14.661Z,69.33
2024-01-04T08:37:20.116Z,69.36
2024-01-04T08:42:23.878Z,68.83
2024-01-04T08:47:28.960Z,69.12
2024-01-04T08:52:33.017Z,68.98
2024-01-04T08:57:36.583Z,69.16
2024-01-04T09:02:42.160Z,69.26
2024-01-04T09:07:45.825Z,69.22
2024-01-04T09:12:49.460Z,68.22
2024-01-04T09:17:56.016Z,68.97
2024-01-04T09:22:59.876Z,68.72
2024-01-04T09:28:03.975Z,68.46
2024-01-04T09:33:09.971Z,68.86
2024-01-04T09:38:13.670Z,68.65
2024-01-04T09:43:17.632Z,69.54
2024-01-04T09:48:29.333Z,68.58
2024-01-04T09:53:38.723Z,68.94
2024-01-04T09:58:42.472Z,69.38
2024-01-04T10:03:50.099Z,68.47
2024-01-04T10:08:58.764Z,68.85
2024-01-04T10:14:02.356Z,68.81
2024-01-04T10:19:08.258Z,69.41
2024-01-04T10:24:14.804Z,69.38
2024-01-04T10:29:22.129Z,69.41
2024-01-04T10:47:43.985Z,69.02
2024-01-04T10:52:49.128Z,68.96
2024-01-04T10:57:52.970Z,69.16
2024-01-04T11:02:59.161Z,68.90
2024-01-04T11:08:03.362Z,68.94
2024-01-04T11:13:07.133Z,68.82
2024-01-04T11:18:23.412Z,68.90
2024-01-04T11:23:38.153Z,68.96
2024-01-04T11:28:42.213Z,69.27
2024-01-04T11:33:51.384Z,69.05
2024-01-04T11:38:58.564Z,68.77
2024-01-04T11:44:02.159Z,68.90
2024-01-04T11:49:08.456Z,69.47
2024-01-04T11:54:12.480Z,69.32
2024-01-04T11:59:19.639Z,69.22
2024-01-04T12:04:25.109Z,69.25
2024-01-04T12:09:29.298Z,69.02
2024-01-04T12:14:35.879Z,69.22
2024-01-04T12:19:41.045Z,69.29
2024-01-04T12:38:27.902Z,69.35
2024-01-04T12:57:20.718Z,69.28
2024-01-04T13:02:26.837Z,69.50
2024-01-04T13:07:30.427Z,69.61
2024-01-04T13:12:35.524Z,69.89
2024-01-04T13:17:39.165Z,69.81
2024-01-04T13:22:45.751Z,69.96
2024-01-04T13:27:51.436Z,69.45
2024-01-04T13:32:55.220Z,70.01
2024-01-04T13:37:59.497Z,69.71
2024-01-04T13:43:04.745Z,69.96
2024-01-04T13:48:08.994Z,69.99
2024-01-04T13:53:13.933Z,69.71
2024-01-04T13:58:20.467Z,69.62
2024-01-04T14:03:24.230Z,69.23
2024-01-04T14:08:29.806Z,69.57
2024-01-04T14:13:34.955Z,69.64
2024-01-04T14:18:38.596Z,69.86
2024-01-04T14:23:42.309Z,69.96
2024-01-04T14:28:47.318Z,69.99
2024-01-04T14:33:51.104Z,70.21
2024-01-04T14:38:54.839Z,70.15
2024-01-04T14:43:59.991Z,70.04
2024-01-04T14:49:04.454Z,70.09
2024-01-04T14:54:08.383Z,69.90
2024-01-04T14:59:14.765Z,69.56
2024-01-04T15:04:18.423Z,70.20
2024-01-04T15:09:22.175Z,69.76
2024-01-04T15:14:27.246Z,69.78
2024-01-04T15:19:30.965Z,70.07
2024-01-04T15:24:34.671Z,70.14
2024-01-04T15:29:41.026Z,69.76
2024-01-04T15:34:44.710Z,70.01
2024-01-04T15:39:48.333Z,70.82
2024-01-04T15:44:53.369Z,70.04
2024-01-04T15:49:57.105Z,70.36
2024-01-04T15:55:00.812Z,70.29
2024-01-04T16:00:06.872Z,70.27
2024-01-04T16:05:11.549Z,70.26
2024-01-04T16:10:16.119Z,70.46
2024-01-04T16:15:22.519Z,70.27
2024-01-04T16:20:33.345Z,69.98
2024-01-04T16:25:40.533Z,70.55
2024-01-04T16:30:45.707Z,70.36
2024-01-04T16:35:49.731Z,70.47
2024-01-04T16:40:53.607Z,70.62
2024-01-04T16:45:58.597Z,70.23
2024-01-04T16:51:02.290Z,70.87
2024-01-04T18:49:02.562Z,71.01
2024-01-04T18:54:06.525Z,71.13
2024-01-04T18:59:11.973Z,70.93
2024-01-04T19:04:17.168Z,70.99
2024-01-04T19:09:21.140Z,70.52
2024-01-04T19:14:24.751Z,70.73
2024-01-04T19:19:30.121Z,70.98
2024-01-04T19:24:33.856Z,70.86
2024-01-04T19:29:37.675Z,70.69
2024-01-04T19:34:42.708Z,70.32
2024-01-04T19:39:46.310Z,70.83
2024-01-04T19:44:49.921Z,70.57
2024-01-04T19:49:55.101Z,70.59
2024-01-04T19:54:58.751Z,70.80
2024-01-04T20:00:02.409Z,70.80
2024-01-04T20:05:08.485Z,70.77
2024-01-04T20:10:12.635Z,70.53
2024-01-04T20:15:16.459Z,70.48
2024-01-04T20:20:21.545Z,70.53
2024-01-04T20:25:25.266Z,70.58
2024-01-04T20:30:29.053Z,70.58
2024-01-04T20:35:34.346Z,70.44
2024-01-04T20:40:38.069Z,70.56
2024-01-04T20:45:42.004Z,70.48
2024-01-04T20:50:48.069Z,70.64
2024-01-04T20:55:51.716Z,70.90
2024-01-04T21:00:55.346Z,70.26
2024-01-04T21:06:00.550Z,70.49
2024-01-04T21:11:04.262Z,70.27
2024-01-04T21:16:08.206Z,70.20
2024-01-04T21:21:13.248Z,70.45
2024-01-04T21:26:16.899Z,70.58
2024-01-04T21:31:20.580Z,70.28
2024-01-04T21:36:28.260Z,70.45
2024-01-04T21:41:32.247Z,70.03
2024-01-04T21:46:35.840Z,70.45
2024-01-04T21:51:40.867Z,70.44
2024-01-04T21:56:44.707Z,70.25
2024-01-04T22:01:48.442Z,70.38
2024-01-04T22:06:54.036Z,69.71
2024-01-04T22:12:00.716Z,70.22
2024-01-04T22:17:05.596Z,70.16
2024-01-04T22:22:10.678Z,70.27
2024-01-04T22:27:14.294Z,70.69
2024-01-04T22:32:17.893Z,70.18
2024-01-04T22:37:22.903Z,70.18
2024-01-04T22:42:26.548Z,70.19
2024-01-04T22:47:54.069Z,70.12
2024-01-04T22:53:00.127Z,70.07
2024-01-04T22:58:04.176Z,70.25
2024-01-04T23:03:07.868Z,69.92
2024-01-04T23:08:12.920Z,70.04
2024-01-04T23:13:16.488Z,70.24
2024-01-04T23:18:20.362Z,70.60
2024-01-04T23:23:25.515Z,69.89
2024-01-04T23:28:29.107Z,69.97
2024-01-04T23:33:37.401Z,69.92
2024-01-04T23:38:47.566Z,70.24
2024-01-04T23:43:51.132Z,69.98
2024-01-04T23:48:54.820Z,69.98
2024-01-04T23:54:00.000Z,69.75
2024-01-04T23:59:03.618Z,70.15
